Time;durP1;ratioP1;P1;durP2;ratioP2;P2;SDS_P1;SDS_P2;PMS_P1;PMS_P2;Temp;Humidity;BMP_temperature;BMP_pressure;BME280_temperature;BME280_humidity;BME280_pressure;Samples;Min_cycle;Max_cycle;Signal;HPM_P1;HPM_P2
2021/12/31 00:01:26;;;;;;;4.27;3.10;;;;;;;15.65;63.00;99749.66;4962924;28;20227;-69
2021/12/31 00:03:55;;;;;;;5.30;3.60;;;;;;;15.90;61.03;99737.44;4957632;28;20664;-69
2021/12/31 00:06:22;;;;;;;4.97;3.50;;;;;;;16.63;59.89;99714.97;4961484;28;20754;-69
2021/12/31 00:08:49;;;;;;;6.93;3.67;;;;;;;16.27;60.49;99732.47;4957599;28;20235;-69
2021/12/31 00:11:16;;;;;;;4.60;3.80;;;;;;;13.91;65.73;99798.97;4957898;28;20224;-69
2021/12/31 00:13:43;;;;;;;4.83;3.20;;;;;;;15.00;64.88;99751.97;4962387;28;20776;-69
2021/12/31 00:16:10;;;;;;;5.60;3.80;;;;;;;15.00;64.73;99760.03;4966516;28;20225;-69
2021/12/31 00:18:37;;;;;;;5.43;3.40;;;;;;;15.90;61.50;99727.50;4964533;28;20246;-69
2021/12/31 00:21:04;;;;;;;4.77;3.80;;;;;;;16.15;60.25;99722.34;4966595;28;20907;-69
2021/12/31 00:23:31;;;;;;;6.13;4.30;;;;;;;15.93;61.09;99739.72;4967311;28;20748;-69
2021/12/31 00:25:58;;;;;;;5.80;4.27;;;;;;;16.14;61.14;99730.66;4958196;28;20223;-68
2021/12/31 00:28:25;;;;;;;6.50;3.80;;;;;;;16.50;59.10;99697.84;4964681;28;20770;-69
2021/12/31 00:30:54;;;;;;;4.77;4.20;;;;;;;16.34;59.53;99727.91;4962976;28;20809;-69
2021/12/31 00:33:22;;;;;;;8.17;4.03;;;;;;;17.11;58.16;99691.13;4962646;28;20223;-69
2021/12/31 00:35:50;;;;;;;6.67;3.80;;;;;;;15.69;61.91;99739.31;4959895;28;20222;-68
2021/12/31 00:38:17;;;;;;;5.47;4.33;;;;;;;16.25;60.13;99730.00;4962526;28;20231;-69
2021/12/31 00:40:44;;;;;;;7.97;4.43;;;;;;;16.50;59.14;99718.56;4967335;28;20226;-69
2021/12/31 00:43:11;;;;;;;6.70;4.33;;;;;;;16.37;59.13;99720.25;4965755;28;20238;-69
2021/12/31 00:45:41;;;;;;;7.63;4.63;;;;;;;17.09;57.69;99701.31;4963139;28;20237;-69
2021/12/31 00:48:10;;;;;;;6.40;4.80;;;;;;;16.94;57.74;99715.06;4959303;28;20227;-69
2021/12/31 00:50:38;;;;;;;5.80;4.23;;;;;;;16.50;58.35;99742.78;4967961;28;20241;-69
2021/12/31 00:53:05;;;;;;;7.07;5.03;;;;;;;16.61;58.38;99731.38;4958017;28;20265;-69
2021/12/31 00:55:32;;;;;;;6.13;4.50;;;;;;;16.67;58.16;99730.50;4964343;28;20293;-69
2021/12/31 00:57:59;;;;;;;7.97;4.87;;;;;;;17.16;57.02;99705.84;4961611;28;20237;-68
2021/12/31 01:00:27;;;;;;;6.70;4.50;;;;;;;17.11;57.48;99710.00;4956423;28;20239;-69
2021/12/31 01:02:54;;;;;;;7.83;4.50;;;;;;;16.56;58.43;99733.84;4953758;28;20241;-68
2021/12/31 01:05:22;;;;;;;6.47;4.80;;;;;;;16.45;58.60;99740.72;4961885;28;20724;-68
2021/12/31 01:07:49;;;;;;;6.23;4.20;;;;;;;14.17;64.65;99798.34;4961057;28;20229;-69
2021/12/31 01:10:18;;;;;;;4.93;4.27;;;;;;;16.39;59.37;99728.94;4962788;28;20223;-69
2021/12/31 01:12:46;;;;;;;6.43;4.37;;;;;;;16.82;57.72;99719.50;4966347;28;21001;-69
2021/12/31 01:15:34;;;;;;;7.47;4.50;;;;;;;13.68;65.35;99798.34;4965967;28;20321;-69
2021/12/31 01:20:27;;;;;;;8.00;4.40;;;;;;;16.88;57.60;99710.56;4954848;28;20242;-69
2021/12/31 01:22:54;;;;;;;8.30;4.93;;;;;;;17.07;56.30;99700.72;4961860;28;20832;-69
2021/12/31 01:25:21;;;;;;;6.83;4.07;;;;;;;14.67;61.36;99781.34;4957964;28;20226;-69
2021/12/31 01:27:48;;;;;;;8.50;5.00;;;;;;;15.78;60.34;99731.88;4968755;28;20230;-69
2021/12/31 01:30:16;;;;;;;8.30;4.60;;;;;;;13.99;64.12;99787.25;4957683;28;20238;-69
2021/12/31 01:32:49;;;;;;;8.30;4.73;;;;;;;11.98;71.00;99815.16;4962638;28;20232;-68
2021/12/31 01:35:17;;;;;;;6.97;4.83;;;;;;;12.19;70.96;99804.63;4960306;28;20688;-69
2021/12/31 01:37:44;;;;;;;5.93;3.90;;;;;;;12.21;70.87;99799.06;4960551;28;20223;-69
2021/12/31 01:40:11;;;;;;;8.37;4.60;;;;;;;12.73;69.09;99786.66;4962326;28;20227;-69
2021/12/31 01:42:38;;;;;;;5.90;4.80;;;;;;;14.52;64.08;99714.41;4962944;28;20231;-69
2021/12/31 01:45:06;;;;;;;5.90;4.47;;;;;;;13.83;66.94;99750.00;4967570;28;20227;-68
2021/12/31 01:47:55;;;;;;;6.40;4.13;;;;;;;14.15;63.60;99749.44;4959120;28;20230;-69
2021/12/31 01:50:22;;;;;;;8.00;4.30;;;;;;;13.81;66.92;99766.25;4965524;28;20256;-69
2021/12/31 01:52:49;;;;;;;6.33;4.80;;;;;;;16.01;59.74;99693.78;4949557;28;20227;-69
2021/12/31 01:55:16;;;;;;;6.97;4.87;;;;;;;15.62;59.78;99717.00;4958771;28;20230;-69
2021/12/31 01:57:43;;;;;;;6.17;4.80;;;;;;;15.78;59.35;99721.13;4959366;28;20223;-68
2021/12/31 02:00:11;;;;;;;7.80;4.50;;;;;;;15.87;59.30;99714.50;4961828;28;20237;-69
2021/12/31 02:02:41;;;;;;;7.77;4.83;;;;;;;15.99;58.73;99704.75;4964026;28;20234;-69
2021/12/31 02:05:09;;;;;;;7.77;4.60;;;;;;;15.46;59.59;99732.50;4961263;28;20241;-68
2021/12/31 02:07:38;;;;;;;7.07;4.50;;;;;;;16.30;57.67;99705.97;4959052;28;20699;-69
2021/12/31 02:10:07;;;;;;;7.20;5.10;;;;;;;14.79;63.41;99726.06;4964357;28;20230;-69
2021/12/31 02:12:40;;;;;;;7.33;4.57;;;;;;;14.79;62.24;99728.75;4959683;28;21468;-68
2021/12/31 02:15:07;;;;;;;8.10;4.60;;;;;;;15.72;59.81;99695.88;4985022;28;20246;-68
2021/12/31 02:17:34;;;;;;;7.50;4.70;;;;;;;15.75;59.68;99700.00;4975655;28;20229;-69
2021/12/31 02:20:05;;;;;;;6.90;4.97;;;;;;;16.15;57.76;99695.44;4965650;28;20243;-69
2021/12/31 02:22:40;;;;;;;7.03;5.37;;;;;;;16.40;57.13;99692.06;4964276;28;20230;-69
2021/12/31 02:25:07;;;;;;;8.87;4.50;;;;;;;15.24;60.40;99737.13;4965629;28;20256;-69
2021/12/31 02:27:39;;;;;;;7.43;4.90;;;;;;;15.64;58.57;99706.84;4966308;28;20226;-69
2021/12/31 02:30:09;;;;;;;7.97;5.33;;;;;;;15.60;59.54;99709.13;4958953;28;20239;-69
2021/12/31 02:32:37;;;;;;;7.03;4.90;;;;;;;16.11;57.92;99683.44;4965346;28;20600;-69
2021/12/31 02:35:07;;;;;;;5.77;4.30;;;;;;;16.07;57.64;99697.53;4966655;28;20234;-69
2021/12/31 02:37:35;;;;;;;7.63;5.00;;;;;;;16.50;56.60;99678.97;4964717;28;20236;-69
2021/12/31 02:40:08;;;;;;;8.00;5.43;;;;;;;15.46;57.93;99712.81;4972030;28;20230;-69
2021/12/31 02:42:35;;;;;;;7.43;5.00;;;;;;;16.42;57.21;99673.00;4967395;28;20692;-69
2021/12/31 02:45:03;;;;;;;10.87;5.30;;;;;;;15.03;59.57;99729.25;4978570;28;20218;-69
2021/12/31 02:47:30;;;;;;;8.30;5.40;;;;;;;16.00;57.70;99686.75;4984148;28;20218;-69
2021/12/31 02:49:57;;;;;;;9.17;6.20;;;;;;;15.14;59.65;99725.97;4968731;28;20222;-69
2021/12/31 02:52:24;;;;;;;11.97;6.50;;;;;;;15.66;57.55;99710.97;4965700;28;20230;-69
2021/12/31 02:54:53;;;;;;;8.67;5.50;;;;;;;16.00;57.32;99694.81;4966453;28;20612;-69
2021/12/31 02:57:20;;;;;;;11.03;5.90;;;;;;;15.82;58.01;99698.16;4966246;28;20310;-69
2021/12/31 02:59:47;;;;;;;9.77;6.13;;;;;;;15.63;57.48;99703.34;4959700;28;20233;-69
2021/12/31 03:02:20;;;;;;;10.47;5.53;;;;;;;15.37;57.85;99725.63;4981529;28;20218;-69
2021/12/31 03:04:48;;;;;;;7.47;4.93;;;;;;;15.38;58.18;99721.06;4985762;28;20238;-69
2021/12/31 03:07:18;;;;;;;7.00;5.27;;;;;;;15.19;58.56;99728.88;4984951;28;20232;-69
2021/12/31 03:09:48;;;;;;;7.47;4.77;;;;;;;15.80;57.06;99692.13;4985461;28;20234;-69
2021/12/31 03:12:15;;;;;;;9.57;5.77;;;;;;;15.40;57.61;99714.47;4984353;28;20222;-69
2021/12/31 03:14:45;;;;;;;6.30;5.10;;;;;;;15.19;57.63;99720.00;4985466;28;20226;-69
2021/12/31 03:17:13;;;;;;;7.03;5.10;;;;;;;14.74;58.41;99725.84;4982316;28;20720;-69
2021/12/31 03:19:42;;;;;;;5.70;4.57;;;;;;;14.93;58.76;99721.56;4970683;28;20234;-69
2021/12/31 03:22:10;;;;;;;10.10;5.23;;;;;;;14.51;59.65;99732.34;4983613;28;20741;-69
2021/12/31 03:24:37;;;;;;;8.63;5.03;;;;;;;13.82;60.91;99751.84;4985872;28;20232;-68
2021/12/31 03:27:04;;;;;;;7.93;5.50;;;;;;;14.21;59.62;99733.56;4985418;28;20616;-68
2021/12/31 03:29:31;;;;;;;9.00;5.03;;;;;;;14.57;59.51;99708.41;4979640;28;20227;-69
2021/12/31 03:31:58;;;;;;;6.93;5.10;;;;;;;14.58;59.21;99718.94;4966029;28;20226;-69
2021/12/31 03:34:25;;;;;;;9.13;5.53;;;;;;;14.18;59.61;99722.22;4965381;28;20230;-69
2021/12/31 03:36:55;;;;;;;8.20;5.73;;;;;;;14.62;59.77;99709.47;4966333;28;21038;-69
2021/12/31 03:39:22;;;;;;;8.67;5.63;;;;;;;14.14;59.44;99723.63;4964197;28;20925;-69
2021/12/31 03:41:50;;;;;;;9.43;5.90;;;;;;;14.29;59.98;99722.69;4969446;28;20222;-69
2021/12/31 03:44:16;;;;;;;7.97;5.60;;;;;;;14.81;59.11;99709.78;4971916;28;20226;-69
2021/12/31 03:46:44;;;;;;;7.23;5.90;;;;;;;14.87;58.65;99707.09;4986852;28;20234;-69
2021/12/31 03:49:11;;;;;;;7.77;6.20;;;;;;;15.08;58.03;99706.13;4969343;28;20780;-69
2021/12/31 03:51:38;;;;;;;7.87;5.40;;;;;;;15.00;57.97;99705.47;4962842;28;20237;-69
2021/12/31 03:54:05;;;;;;;10.83;6.53;;;;;;;15.38;56.88;99689.69;4967719;28;20222;-69
2021/12/31 03:56:33;;;;;;;9.00;6.47;;;;;;;15.59;56.17;99680.56;4967162;28;21564;-69
2021/12/31 03:59:00;;;;;;;9.17;6.30;;;;;;;14.63;58.25;99715.69;4968525;28;20270;-69
2021/12/31 04:01:28;;;;;;;11.23;7.10;;;;;;;14.48;58.58;99718.50;4966122;28;20222;-69
2021/12/31 04:03:55;;;;;;;10.33;7.53;;;;;;;15.25;57.58;99686.94;4985920;28;21054;-69
2021/12/31 04:06:23;;;;;;;8.50;6.90;;;;;;;14.70;57.08;99700.41;4975976;28;20230;-69
2021/12/31 04:08:50;;;;;;;7.63;6.03;;;;;;;15.03;57.76;99697.84;4968441;28;20265;-68
2021/12/31 04:11:18;;;;;;;10.57;6.60;;;;;;;14.61;58.52;99709.69;4969465;28;20222;-68
2021/12/31 04:13:45;;;;;;;11.13;6.60;;;;;;;14.09;59.33;99720.69;4975216;28;20930;-69
2021/12/31 04:16:12;;;;;;;7.37;5.93;;;;;;;13.87;60.32;99716.41;4987112;28;20245;-68
2021/12/31 04:18:39;;;;;;;10.20;6.97;;;;;;;14.62;59.17;99696.06;4978214;28;20228;-69
2021/12/31 04:21:07;;;;;;;11.33;7.30;;;;;;;14.01;60.07;99720.84;4976861;28;20925;-68
2021/12/31 04:23:47;;;;;;;10.00;6.67;;;;;;;13.85;60.61;99703.22;4969461;28;20233;-68
2021/12/31 04:26:15;;;;;;;10.43;6.97;;;;;;;14.07;60.02;99692.44;4968747;28;20733;-68
2021/12/31 04:28:43;;;;;;;9.43;6.83;;;;;;;14.33;58.81;99668.44;4967832;28;20235;-68
2021/12/31 04:31:10;;;;;;;10.30;6.53;;;;;;;14.00;60.46;99689.72;4961887;28;20229;-68
2021/12/31 04:33:38;;;;;;;10.73;7.73;;;;;;;14.14;59.49;99683.38;4969382;28;20237;-69
2021/12/31 04:36:05;;;;;;;11.07;7.90;;;;;;;13.52;61.29;99694.84;4968744;28;20238;-68
2021/12/31 04:38:32;;;;;;;11.10;8.47;;;;;;;13.91;60.46;99675.63;4967900;28;20722;-68
2021/12/31 04:40:59;;;;;;;9.33;7.73;;;;;;;13.52;61.75;99693.00;4968339;28;20239;-68
2021/12/31 04:43:26;;;;;;;12.07;8.07;;;;;;;13.99;59.72;99669.25;4976883;28;20244;-68
2021/12/31 04:45:53;;;;;;;10.37;8.00;;;;;;;14.11;59.63;99667.69;4988215;28;20226;-69
2021/12/31 04:48:20;;;;;;;10.87;7.43;;;;;;;14.08;59.56;99673.47;4987268;28;20728;-68
2021/12/31 04:50:48;;;;;;;11.10;7.93;;;;;;;14.13;60.00;99667.47;4988022;28;20246;-68
2021/12/31 04:53:15;;;;;;;10.17;7.63;;;;;;;14.83;57.59;99651.31;4959937;28;20233;-68
2021/12/31 04:55:42;;;;;;;11.00;7.83;;;;;;;14.73;58.11;99644.44;4968422;28;20235;-68
2021/12/31 04:58:09;;;;;;;11.23;7.73;;;;;;;14.73;58.55;99646.31;4966780;28;20231;-68
2021/12/31 05:00:36;;;;;;;9.67;7.70;;;;;;;14.78;57.59;99641.16;4960398;28;20235;-68
2021/12/31 05:03:10;;;;;;;9.97;7.70;;;;;;;14.45;58.17;99655.28;4982232;28;20227;-68
2021/12/31 05:05:37;;;;;;;10.37;8.17;;;;;;;14.61;58.26;99647.94;4981022;28;20799;-68
2021/12/31 05:08:04;;;;;;;10.17;7.90;;;;;;;14.27;59.32;99660.34;4966534;28;20233;-68
2021/12/31 05:10:32;;;;;;;12.37;8.33;;;;;;;14.57;58.46;99652.88;4964238;28;20602;-68
2021/12/31 05:13:01;;;;;;;12.40;8.13;;;;;;;14.13;59.20;99665.66;4982050;28;20233;-68
2021/12/31 05:15:33;;;;;;;11.17;8.30;;;;;;;14.55;59.21;99630.75;4974573;28;20274;-68
2021/12/31 05:18:00;;;;;;;11.97;8.60;;;;;;;14.62;58.21;99626.28;4967789;28;20233;-68
2021/12/31 05:20:27;;;;;;;13.30;8.97;;;;;;;14.45;58.65;99636.50;4978331;28;20240;-68
2021/12/31 05:22:57;;;;;;;12.07;8.57;;;;;;;13.94;58.93;99639.53;4986292;28;20610;-68
2021/12/31 05:25:24;;;;;;;10.37;7.90;;;;;;;12.58;62.21;99663.56;4986260;28;20221;-68
2021/12/31 05:27:51;;;;;;;10.40;8.50;;;;;;;14.52;58.44;99615.91;4978338;28;20231;-68
2021/12/31 05:30:18;;;;;;;12.83;8.97;;;;;;;14.91;57.65;99616.22;4959009;28;20248;-68
2021/12/31 05:32:46;;;;;;;11.27;8.43;;;;;;;14.79;58.29;99626.72;4978892;28;20230;-68
2021/12/31 05:35:13;;;;;;;12.03;8.73;;;;;;;14.33;58.19;99644.28;4964973;28;20234;-68
2021/12/31 05:37:41;;;;;;;10.53;8.77;;;;;;;14.93;57.34;99612.28;4961559;28;20239;-68
2021/12/31 05:40:08;;;;;;;11.63;8.50;;;;;;;14.28;58.32;99640.53;4960147;28;20280;-68
2021/12/31 05:42:35;;;;;;;14.30;8.93;;;;;;;14.58;57.93;99632.22;4969104;28;20244;-68
2021/12/31 05:45:04;;;;;;;11.60;9.00;;;;;;;14.20;58.55;99641.53;4970585;28;20234;-69
2021/12/31 05:47:31;;;;;;;14.33;10.10;;;;;;;11.71;63.60;99665.84;4967146;28;20229;-68
2021/12/31 05:49:57;;;;;;;11.67;8.97;;;;;;;10.54;69.92;99667.81;4964769;28;20235;-68
2021/12/31 05:52:24;;;;;;;12.17;10.07;;;;;;;12.11;64.23;99631.72;4975794;28;20242;-68
2021/12/31 05:54:51;;;;;;;15.87;9.70;;;;;;;13.29;62.21;99593.25;4983924;28;20233;-68
2021/12/31 05:57:18;;;;;;;12.73;9.10;;;;;;;14.34;58.84;99575.34;4985253;28;20235;-68
2021/12/31 05:59:45;;;;;;;14.27;9.80;;;;;;;14.45;58.58;99581.97;4976177;28;20238;-68
2021/12/31 06:02:12;;;;;;;13.70;9.37;;;;;;;14.70;57.50;99591.19;4973165;28;20271;-68
2021/12/31 06:04:39;;;;;;;12.20;9.47;;;;;;;11.52;65.24;99663.69;4968531;28;20240;-68
2021/12/31 06:07:08;;;;;;;12.73;8.87;;;;;;;12.18;63.47;99650.53;4977142;28;20234;-69
2021/12/31 06:09:35;;;;;;;15.50;11.60;;;;;;;10.33;69.56;99676.41;4966582;28;20223;-68
2021/12/31 06:12:03;;;;;;;15.27;10.40;;;;;;;9.94;71.01;99670.00;4966239;28;20229;-69
2021/12/31 06:14:31;;;;;;;70.03;10.43;;;;;;;9.58;73.36;99673.03;4966194;28;20846;-68
2021/12/31 06:17:05;;;;;;;83.70;10.37;;;;;;;11.70;66.36;99610.75;4960478;28;20242;-68
2021/12/31 06:19:33;;;;;;;69.00;9.13;;;;;;;12.35;63.30;99597.66;4963816;28;20233;-69
2021/12/31 06:22:00;;;;;;;113.27;10.47;;;;;;;11.79;65.09;99627.53;4968167;28;20507;-69
2021/12/31 06:24:28;;;;;;;153.27;11.33;;;;;;;13.02;61.16;99588.53;4967271;28;20234;-68
2021/12/31 06:26:55;;;;;;;114.20;10.23;;;;;;;12.73;61.38;99615.38;4965949;28;20249;-68
2021/12/31 06:29:22;;;;;;;110.97;9.97;;;;;;;13.79;59.38;99580.66;4963472;28;20258;-69
2021/12/31 06:31:49;;;;;;;163.47;10.10;;;;;;;12.39;62.97;99635.56;4957454;28;20241;-68
2021/12/31 06:34:16;;;;;;;83.77;9.47;;;;;;;13.44;60.28;99602.06;4964160;28;20231;-68
2021/12/31 06:36:43;;;;;;;89.60;9.20;;;;;;;14.87;55.54;99594.31;4974967;28;20233;-68
2021/12/31 06:39:10;;;;;;;128.10;12.27;;;;;;;14.65;55.57;99617.78;4972830;28;20549;-68
2021/12/31 06:41:37;;;;;;;104.00;9.77;;;;;;;14.18;57.46;99644.44;4976725;28;21042;-68
2021/12/31 06:44:04;;;;;;;110.90;9.97;;;;;;;14.10;57.27;99639.22;4960061;28;20265;-68
2021/12/31 06:46:32;;;;;;;126.40;11.10;;;;;;;14.98;55.45;99605.50;4959597;28;20327;-68
2021/12/31 06:48:59;;;;;;;78.10;10.10;;;;;;;15.15;54.52;99622.84;4965228;28;20237;-69
2021/12/31 06:51:26;;;;;;;111.07;11.13;;;;;;;13.99;56.21;99659.34;4966064;28;20763;-68
2021/12/31 06:53:53;;;;;;;99.93;11.57;;;;;;;12.64;61.44;99695.75;4966098;28;20233;-69
2021/12/31 06:56:21;;;;;;;97.93;11.70;;;;;;;12.41;62.47;99687.03;4964217;28;20230;-69
2021/12/31 06:58:48;;;;;;;140.23;13.00;;;;;;;13.20;60.35;99647.00;4954333;28;20229;-69
2021/12/31 07:01:14;;;;;;;117.83;15.30;;;;;;;14.34;57.22;99615.59;4977094;28;20214;-68
2021/12/31 07:03:45;;;;;;;105.17;18.40;;;;;;;13.75;58.13;99643.75;4979454;28;20223;-68
2021/12/31 07:06:14;;;;;;;88.30;17.97;;;;;;;13.73;58.64;99635.91;4964471;28;20226;-69
2021/12/31 07:08:40;;;;;;;66.73;11.90;;;;;;;10.70;66.85;99689.06;4966745;28;20231;-69
2021/12/31 07:11:08;;;;;;;45.57;13.67;;;;;;;13.09;60.53;99619.91;4958259;28;20249;-68
2021/12/31 07:13:35;;;;;;;34.20;10.70;;;;;;;13.33;59.82;99613.31;4963307;28;20230;-68
2021/12/31 07:16:03;;;;;;;48.17;9.23;;;;;;;13.87;58.26;99601.94;4964927;28;20227;-68
2021/12/31 07:18:30;;;;;;;28.37;9.17;;;;;;;13.84;58.32;99609.56;4966885;28;20234;-68
2021/12/31 07:20:57;;;;;;;21.70;7.77;;;;;;;13.90;57.95;99617.66;4985889;28;20236;-68
2021/12/31 07:23:23;;;;;;;34.87;8.30;;;;;;;13.33;58.31;99650.81;4985946;28;20225;-67
2021/12/31 07:25:51;;;;;;;66.83;9.97;;;;;;;13.39;58.84;99650.03;4961210;28;20622;-68
2021/12/31 07:28:18;;;;;;;46.67;10.20;;;;;;;13.61;58.38;99626.72;4968094;28;20240;-68
2021/12/31 07:30:46;;;;;;;40.47;14.20;;;;;;;13.59;58.70;99634.09;4963300;28;20246;-68
2021/12/31 07:33:16;;;;;;;39.83;16.60;;;;;;;13.31;59.16;99650.16;4969539;28;20231;-69
2021/12/31 07:35:44;;;;;;;26.23;12.37;;;;;;;13.95;57.48;99617.88;4969692;28;20244;-68
2021/12/31 07:38:19;;;;;;;37.10;13.60;;;;;;;14.24;56.13;99607.09;4964934;28;20230;-68
2021/12/31 07:40:47;;;;;;;33.77;11.00;;;;;;;13.51;58.99;99637.78;4968579;28;20234;-68
2021/12/31 07:43:15;;;;;;;53.53;11.30;;;;;;;13.95;57.61;99627.78;4976696;28;20233;-69
2021/12/31 07:45:42;;;;;;;59.43;10.60;;;;;;;13.30;59.58;99654.69;4975007;28;20622;-68
2021/12/31 07:48:09;;;;;;;30.60;9.43;;;;;;;14.02;57.29;99625.97;4968092;28;20235;-68
2021/12/31 07:50:37;;;;;;;24.30;8.70;;;;;;;14.02;56.94;99631.34;4961788;28;20238;-68
2021/12/31 07:53:05;;;;;;;37.70;8.23;;;;;;;12.29;61.81;99697.34;4968816;28;20227;-68
2021/12/31 07:55:34;;;;;;;39.43;9.47;;;;;;;13.20;59.68;99672.94;4983683;28;20222;-68
2021/12/31 07:58:02;;;;;;;23.67;10.03;;;;;;;13.87;57.82;99634.13;4968911;28;20234;-69
2021/12/31 08:00:29;;;;;;;14.90;8.90;;;;;;;13.86;57.40;99637.84;4969947;28;20235;-68
2021/12/31 08:02:57;;;;;;;24.43;8.40;;;;;;;14.46;55.65;99627.41;4967580;28;20236;-68
2021/12/31 08:05:26;;;;;;;35.13;9.77;;;;;;;9.58;67.14;99728.09;4957957;28;20233;-68
2021/12/31 08:07:53;;;;;;;21.17;7.40;;;;;;;8.41;72.04;99747.41;4968848;28;20219;-68
2021/12/31 08:10:20;;;;;;;20.57;7.60;;;;;;;10.54;67.08;99705.13;4968703;28;20226;-69
2021/12/31 08:13:06;;;;;;;16.97;8.10;;;;;;;9.12;71.04;99732.06;4969811;28;20265;-68
2021/12/31 08:15:33;;;;;;;20.33;7.70;;;;;;;9.03;71.17;99708.25;4968671;28;20619;-68
2021/12/31 08:18:00;;;;;;;90.53;10.20;;;;;;;9.36;72.08;99690.50;4961534;28;20235;-69
2021/12/31 08:20:27;;;;;;;40.70;8.60;;;;;;;8.34;74.02;99695.84;4979911;28;20238;-68
2021/12/31 08:22:55;;;;;;;64.50;9.63;;;;;;;9.61;72.70;99650.53;4989416;28;20233;-68
2021/12/31 08:25:23;;;;;;;40.43;8.93;;;;;;;8.77;71.68;99679.94;4983263;28;20866;-68
2021/12/31 08:27:50;;;;;;;15.33;7.00;;;;;;;10.23;69.13;99634.75;4967968;28;20231;-68
2021/12/31 08:30:17;;;;;;;14.33;7.73;;;;;;;11.38;64.79;99610.06;4960835;28;20252;-68
2021/12/31 08:32:44;;;;;;;44.80;9.77;;;;;;;7.83;73.93;99697.53;4975914;28;20718;-68
2021/12/31 08:35:11;;;;;;;54.37;9.17;;;;;;;7.43;75.89;99689.06;4988018;28;20227;-68
2021/12/31 08:37:38;;;;;;;23.77;8.07;;;;;;;7.87;75.46;99670.53;4986445;28;20233;-69
2021/12/31 08:40:08;;;;;;;21.90;8.03;;;;;;;8.82;73.17;99624.41;4986802;28;20682;-68
2021/12/31 08:42:35;;;;;;;39.67;7.60;;;;;;;8.37;73.89;99652.19;4977886;28;20233;-68
2021/12/31 08:45:02;;;;;;;32.00;8.07;;;;;;;8.62;72.14;99645.13;4967604;28;20242;-68
2021/12/31 08:47:29;;;;;;;17.90;8.03;;;;;;;11.72;62.48;99574.00;4965502;28;20219;-68
2021/12/31 08:49:56;;;;;;;28.43;8.70;;;;;;;11.00;66.31;99591.34;4967139;28;20252;-68
2021/12/31 08:52:23;;;;;;;51.97;8.07;;;;;;;8.54;71.75;99685.78;4967534;28;20238;-68
2021/12/31 08:54:50;;;;;;;48.90;8.93;;;;;;;9.10;68.97;99669.34;4971148;28;20234;-68
2021/12/31 08:57:17;;;;;;;73.57;8.63;;;;;;;8.97;72.29;99677.78;4970056;28;20240;-69
2021/12/31 08:59:44;;;;;;;54.80;8.47;;;;;;;9.63;68.90;99654.72;4960086;28;20223;-68
2021/12/31 09:02:13;;;;;;;35.93;8.27;;;;;;;12.01;62.19;99612.47;4967138;28;20245;-68
2021/12/31 09:04:40;;;;;;;58.23;9.30;;;;;;;12.17;62.08;99603.41;4966410;28;20238;-68
2021/12/31 09:07:07;;;;;;;45.63;9.40;;;;;;;13.18;59.90;99554.47;4969281;28;20236;-68
2021/12/31 09:09:34;;;;;;;57.07;8.80;;;;;;;10.11;67.10;99660.97;4961659;28;20235;-68
2021/12/31 09:12:01;;;;;;;46.27;8.30;;;;;;;11.11;66.52;99599.94;4960251;28;20237;-68
2021/12/31 09:14:28;;;;;;;83.63;8.87;;;;;;;10.35;68.38;99632.53;4967485;28;20455;-69
2021/12/31 09:16:55;;;;;;;94.53;9.57;;;;;;;11.15;65.12;99628.78;4968568;28;20230;-68
2021/12/31 09:19:22;;;;;;;116.53;10.23;;;;;;;8.88;70.50;99690.25;4971694;28;20627;-68
2021/12/31 09:21:49;;;;;;;39.77;9.10;;;;;;;11.29;66.91;99597.78;4965941;28;20223;-68
2021/12/31 09:24:16;;;;;;;40.80;8.37;;;;;;;12.74;61.58;99560.84;4961347;28;20234;-68
2021/12/31 09:26:43;;;;;;;71.57;9.47;;;;;;;12.25;62.16;99605.16;4975358;28;20230;-68
2021/12/31 09:29:16;;;;;;;81.20;11.83;;;;;;;13.41;59.13;99571.13;4967142;28;20852;-73
2021/12/31 09:31:44;;;;;;;77.17;11.17;;;;;;;12.93;60.59;99595.00;4972310;28;20710;-68
2021/12/31 09:34:11;;;;;;;48.53;10.23;;;;;;;13.05;60.40;99592.66;4972228;28;20230;-68
2021/12/31 09:36:37;;;;;;;43.80;11.03;;;;;;;13.37;59.75;99588.63;4960304;28;20242;-68
2021/12/31 09:39:04;;;;;;;76.47;12.03;;;;;;;13.21;59.13;99615.66;4961273;28;20231;-68
2021/12/31 09:41:31;;;;;;;62.67;12.57;;;;;;;13.43;59.30;99611.94;4965146;28;20224;-69
2021/12/31 09:43:58;;;;;;;36.87;11.13;;;;;;;13.55;59.09;99625.63;4963461;28;20917;-68
2021/12/31 09:46:25;;;;;;;34.00;10.80;;;;;;;13.35;60.08;99612.06;4964867;28;20345;-68
2021/12/31 09:48:52;;;;;;;32.40;11.67;;;;;;;13.72;59.03;99602.06;4962534;28;20244;-68
2021/12/31 09:51:20;;;;;;;40.07;10.97;;;;;;;13.91;58.21;99599.69;4957922;28;20235;-68
2021/12/31 09:53:47;;;;;;;64.90;10.93;;;;;;;12.35;62.70;99679.75;4966302;28;20237;-69
2021/12/31 09:56:14;;;;;;;30.07;8.47;;;;;;;12.18;62.99;99671.09;4978899;28;20229;-70
2021/12/31 09:58:41;;;;;;;26.17;8.53;;;;;;;13.37;60.32;99607.38;4965135;28;20235;-68
2021/12/31 10:01:09;;;;;;;19.17;7.83;;;;;;;12.58;62.58;99618.94;4961717;28;20614;-68
2021/12/31 10:03:37;;;;;;;17.57;7.10;;;;;;;12.06;63.54;99644.00;4963974;28;20234;-67
2021/12/31 10:06:10;;;;;;;26.27;10.10;;;;;;;13.05;61.08;99595.31;4963780;28;21422;-67
2021/12/31 10:08:43;;;;;;;44.03;15.17;;;;;;;13.50;59.67;99595.91;4966434;28;20593;-67
2021/12/31 10:11:20;;;;;;;37.77;9.83;;;;;;;13.34;61.07;99591.69;4960932;28;20790;-67
2021/12/31 10:14:01;;;;;;;31.40;9.97;;;;;;;13.91;59.10;99556.78;4966283;28;20241;-68
2021/12/31 10:16:39;;;;;;;33.63;10.40;;;;;;;12.80;61.55;99608.25;4963594;28;20237;-67
2021/12/31 10:19:14;;;;;;;29.23;10.00;;;;;;;12.24;63.49;99628.41;4961941;28;20317;-67
2021/12/31 10:21:56;;;;;;;22.37;9.60;;;;;;;13.39;60.76;99581.22;4969751;28;20940;-67
2021/12/31 10:24:25;;;;;;;19.90;9.53;;;;;;;12.88;61.64;99600.13;4962406;28;20640;-67
2021/12/31 10:26:54;;;;;;;25.10;9.40;;;;;;;12.85;61.62;99604.00;4964048;28;20240;-68
2021/12/31 10:29:21;;;;;;;22.70;9.33;;;;;;;12.37;63.58;99619.69;4965707;28;20230;-67
2021/12/31 10:31:53;;;;;;;31.37;9.93;;;;;;;12.38;64.37;99601.78;4966914;28;20242;-67
2021/12/31 10:34:38;;;;;;;42.40;9.53;;;;;;;12.04;64.15;99624.59;4959271;28;20238;-67
2021/12/31 10:37:23;;;;;;;37.40;10.57;;;;;;;12.52;63.50;99591.06;4966321;28;20223;-67
2021/12/31 10:40:01;;;;;;;23.37;11.20;;;;;;;12.51;63.25;99594.78;4962753;28;20759;-67
2021/12/31 10:42:30;;;;;;;19.07;10.47;;;;;;;12.42;63.70;99582.50;4970297;28;20226;-68
2021/12/31 10:44:58;;;;;;;13.83;9.93;;;;;;;12.34;63.84;99579.94;4958564;28;20234;-68
2021/12/31 10:47:30;;;;;;;16.33;10.40;;;;;;;12.38;64.08;99593.78;4965934;28;20318;-68
2021/12/31 10:50:03;;;;;;;16.73;10.77;;;;;;;13.44;62.57;99537.75;4961870;28;20814;-68
2021/12/31 10:52:37;;;;;;;14.97;10.80;;;;;;;13.32;62.54;99566.94;4980744;28;20237;-68
2021/12/31 10:58:03;;;;;;;13.97;10.27;;;;;;;12.74;64.50;99558.16;4955041;28;20265;-68
2021/12/31 11:03:48;;;;;;;16.50;10.13;;;;;;;10.11;74.25;99570.34;5038623;27;20576;-70
2021/12/31 11:06:16;;;;;;;14.87;10.37;;;;;;;10.93;71.63;99544.22;5021892;28;20224;-67
2021/12/31 11:08:49;;;;;;;12.60;8.50;;;;;;;10.25;75.43;99562.63;4999033;28;20236;-68
2021/12/31 11:11:19;;;;;;;11.57;8.80;;;;;;;11.46;70.06;99522.84;4972437;28;20229;-67
2021/12/31 11:13:49;;;;;;;11.33;8.30;;;;;;;11.02;70.88;99559.97;4981236;28;20226;-67
2021/12/31 11:16:16;;;;;;;11.83;8.70;;;;;;;11.72;69.24;99525.06;4982601;28;20226;-68
2021/12/31 11:18:43;;;;;;;16.60;11.77;;;;;;;11.41;70.29;99566.13;4978915;28;20242;-67
2021/12/31 11:21:14;;;;;;;12.83;9.63;;;;;;;11.95;68.10;99543.69;4994804;28;20240;-67
2021/12/31 11:23:43;;;;;;;12.37;8.83;;;;;;;11.13;70.67;99595.25;4972001;28;20245;-67
2021/12/31 11:26:13;;;;;;;12.53;8.40;;;;;;;11.40;70.26;99577.84;4978206;28;20230;-67
2021/12/31 11:28:45;;;;;;;12.60;10.37;;;;;;;11.63;69.19;99587.63;4980813;28;20242;-67
2021/12/31 11:31:18;;;;;;;14.00;10.70;;;;;;;11.93;68.26;99586.63;4980664;28;20228;-68
2021/12/31 11:33:58;;;;;;;14.87;11.63;;;;;;;11.64;68.62;99599.97;4982158;28;20232;-67
2021/12/31 11:36:38;;;;;;;13.60;11.03;;;;;;;11.46;68.63;99609.16;4974117;28;20245;-67
2021/12/31 11:39:25;;;;;;;13.63;10.73;;;;;;;11.50;69.13;99610.47;4976105;28;20226;-67
2021/12/31 11:41:54;;;;;;;14.10;11.47;;;;;;;11.80;68.37;99593.63;4981631;28;20232;-67